createdAt,value
2018-05-15T00:01:43.795Z,15.27
2018-05-15T00:04:12.144Z,12.43
2018-05-15T00:06:39.734Z,13.73
2018-05-15T00:09:08.962Z,15.93
2018-05-15T00:11:36.556Z,14.50
2018-05-15T00:14:04.168Z,12.57
2018-05-15T00:16:32.525Z,15.77
2018-05-15T00:19:00.145Z,13.97
2018-05-15T00:21:27.723Z,13.30
2018-05-15T00:23:55.311Z,13.87
2018-05-15T00:26:22.897Z,13.03
2018-05-15T00:28:50.468Z,12.17
2018-05-15T00:31:18.138Z,13.60
2018-05-15T00:33:47.061Z,17.13
2018-05-15T00:36:14.671Z,12.97
2018-05-15T00:38:42.260Z,13.73
2018-05-15T00:41:09.835Z,14.47
2018-05-15T00:43:38.216Z,14.27
2018-05-15T00:46:05.856Z,16.60
2018-05-15T00:48:34.236Z,15.93
2018-05-15T00:51:01.816Z,11.03
2018-05-15T00:53:29.379Z,12.43
2018-05-15T00:55:56.946Z,14.50
2018-05-15T00:58:24.538Z,13.97
2018-05-15T01:00:52.144Z,12.10
2018-05-15T01:03:19.721Z,12.43
2018-05-15T01:05:47.314Z,12.10
2018-05-15T01:08:14.898Z,12.07
2018-05-15T01:10:43.265Z,12.63
2018-05-15T01:13:11.597Z,13.97
2018-05-15T01:15:39.223Z,11.40
2018-05-15T01:18:06.906Z,13.37
2018-05-15T01:20:34.479Z,11.43
2018-05-15T01:23:02.109Z,10.53
2018-05-15T01:25:30.481Z,11.23
2018-05-15T01:27:58.076Z,13.70
2018-05-15T01:30:25.652Z,11.53
2018-05-15T01:32:53.232Z,13.57
2018-05-15T01:35:20.809Z,14.93
2018-05-15T01:37:48.435Z,12.47
2018-05-15T01:40:16.800Z,15.13
2018-05-15T01:42:45.143Z,13.33
2018-05-15T01:45:12.752Z,14.80
2018-05-15T01:47:41.147Z,15.83
2018-05-15T01:50:08.744Z,19.30
2018-05-15T01:52:37.099Z,13.47
2018-05-15T01:55:05.452Z,12.73
2018-05-15T01:57:33.079Z,16.30
2018-05-15T02:00:00.661Z,10.73
2018-05-15T02:02:28.233Z,13.53
2018-05-15T02:04:55.844Z,13.77
2018-05-15T02:07:23.411Z,11.33
2018-05-15T02:09:51.040Z,14.40
2018-05-15T02:12:18.617Z,12.77
2018-05-15T02:14:46.985Z,13.03
2018-05-15T02:17:14.572Z,11.43
2018-05-15T02:19:43.614Z,12.87
2018-05-15T02:22:11.264Z,13.40
2018-05-15T02:24:38.815Z,15.03
2018-05-15T02:27:06.409Z,12.00
2018-05-15T02:29:35.206Z,10.57
2018-05-15T02:32:02.782Z,13.97
2018-05-15T02:34:30.363Z,13.40
2018-05-15T02:36:58.016Z,15.10
2018-05-15T02:39:25.607Z,12.17
2018-05-15T02:41:53.209Z,12.20
2018-05-15T02:44:20.797Z,12.93
2018-05-15T02:46:48.405Z,11.83
2018-05-15T02:49:16.757Z,14.03
2018-05-15T02:51:44.342Z,13.63
2018-05-15T02:54:11.924Z,13.73
2018-05-15T02:56:39.544Z,13.50
2018-05-15T02:59:07.157Z,14.00
2018-05-15T03:01:35.535Z,14.53
2018-05-15T03:04:03.168Z,12.67
2018-05-15T03:06:30.746Z,12.53
2018-05-15T03:08:58.337Z,17.20
2018-05-15T03:11:25.927Z,15.27
2018-05-15T03:13:53.496Z,13.80
2018-05-15T03:16:21.113Z,13.80
2018-05-15T03:18:48.675Z,17.47
2018-05-15T03:21:16.250Z,15.17
2018-05-15T03:23:44.648Z,13.63
2018-05-15T03:26:13.016Z,12.93
2018-05-15T03:28:41.395Z,15.17
2018-05-15T03:31:08.969Z,13.57
2018-05-15T03:33:36.552Z,13.83
2018-05-15T03:36:04.143Z,12.40
2018-05-15T03:38:31.741Z,11.87
2018-05-15T03:40:59.384Z,12.87
2018-05-15T03:43:26.978Z,13.00
2018-05-15T03:45:54.578Z,13.10
2018-05-15T03:48:22.926Z,13.70
2018-05-15T03:50:50.502Z,11.37
2018-05-15T03:53:18.088Z,13.23
2018-05-15T03:55:46.434Z,15.33
2018-05-15T03:58:14.098Z,14.53
2018-05-15T04:00:53.642Z,11.97
2018-05-15T04:03:33.028Z,16.03
2018-05-15T04:09:11.197Z,15.30
2018-05-15T04:11:39.219Z,13.50
2018-05-15T04:14:06.823Z,14.90
2018-05-15T04:16:34.441Z,14.30
2018-05-15T04:19:02.043Z,14.40
2018-05-15T04:21:29.655Z,15.13
2018-05-15T04:23:58.069Z,12.20
2018-05-15T04:26:25.684Z,14.57
2018-05-15T04:28:54.053Z,13.73
2018-05-15T04:31:21.634Z,16.13
2018-05-15T04:33:49.201Z,13.97
2018-05-15T04:36:16.810Z,15.07
2018-05-15T04:38:44.418Z,14.47
2018-05-15T04:41:11.996Z,13.00
2018-05-15T04:43:41.460Z,12.63
2018-05-15T04:46:08.969Z,14.33
2018-05-15T04:48:36.592Z,14.30
2018-05-15T04:51:04.199Z,17.73
2018-05-15T04:53:31.801Z,17.57
2018-05-15T04:55:59.365Z,13.93
2018-05-15T04:58:26.959Z,15.93
2018-05-15T05:00:54.544Z,15.73
2018-05-15T05:03:22.141Z,15.93
2018-05-15T05:05:50.532Z,15.90
2018-05-15T05:08:18.169Z,14.77
2018-05-15T05:10:45.784Z,13.07
2018-05-15T05:13:13.376Z,13.93
2018-05-15T05:15:40.978Z,13.00
2018-05-15T05:18:08.598Z,15.70
2018-05-15T05:20:36.161Z,13.97
2018-05-15T05:23:04.611Z,15.73
2018-05-15T05:25:32.239Z,14.97
2018-05-15T05:27:59.900Z,14.60
2018-05-15T05:30:27.517Z,14.27
2018-05-15T05:32:55.848Z,14.00
2018-05-15T05:35:23.504Z,12.93
2018-05-15T05:37:51.903Z,14.33
2018-05-15T05:40:19.517Z,15.00
2018-05-15T05:42:47.098Z,15.93
2018-05-15T05:45:14.658Z,15.27
2018-05-15T05:47:42.473Z,16.13
2018-05-15T05:50:10.050Z,13.87
2018-05-15T05:52:37.692Z,14.17
2018-05-15T05:55:05.284Z,14.03
2018-05-15T05:57:33.656Z,15.43
2018-05-15T06:00:01.244Z,13.57
2018-05-15T06:02:28.822Z,13.37
2018-05-15T06:04:56.408Z,14.00
2018-05-15T06:07:24.992Z,13.83
2018-05-15T06:09:52.571Z,14.60
2018-05-15T06:12:20.161Z,13.37
2018-05-15T06:14:47.869Z,14.90
2018-05-15T06:17:15.447Z,14.30
2018-05-15T06:19:43.103Z,14.67
2018-05-15T06:22:10.709Z,12.67
2018-05-15T06:24:38.299Z,14.67
2018-05-15T06:27:05.906Z,15.40
2018-05-15T06:29:33.506Z,14.47
2018-05-15T06:32:01.086Z,22.60
2018-05-15T06:34:28.699Z,14.13
2018-05-15T06:36:57.066Z,16.67
2018-05-15T06:39:25.427Z,16.77
2018-05-15T06:41:53.786Z,15.07
2018-05-15T06:44:21.359Z,13.60
2018-05-15T06:46:48.961Z,14.70
2018-05-15T06:49:17.301Z,12.77
2018-05-15T06:51:45.227Z,13.20
2018-05-15T06:54:13.612Z,15.27
2018-05-15T06:56:41.205Z,14.23
2018-05-15T06:59:08.789Z,13.30
2018-05-15T07:01:36.384Z,14.20
2018-05-15T07:04:04.786Z,12.43
2018-05-15T07:06:32.417Z,14.57
2018-05-15T07:09:00.034Z,12.80
2018-05-15T07:11:27.652Z,14.87
2018-05-15T07:13:55.289Z,14.60
2018-05-15T07:16:22.854Z,12.80
2018-05-15T07:18:50.437Z,13.03
2018-05-15T07:21:18.006Z,13.97
2018-05-15T07:23:45.577Z,13.20
2018-05-15T07:26:13.210Z,13.50
2018-05-15T07:28:40.795Z,14.30
2018-05-15T07:31:08.444Z,13.57
2018-05-15T07:33:36.025Z,14.13
2018-05-15T07:36:03.629Z,15.23
2018-05-15T07:38:31.251Z,13.57
2018-05-15T07:40:58.823Z,13.70
2018-05-15T07:43:26.413Z,12.23
2018-05-15T07:45:54.793Z,12.77
2018-05-15T07:48:23.166Z,12.77
2018-05-15T07:50:50.780Z,12.60
2018-05-15T07:53:18.370Z,11.90
2018-05-15T07:55:45.960Z,15.53
2018-05-15T07:58:13.548Z,11.17
2018-05-15T08:00:41.904Z,12.00
2018-05-15T08:03:09.503Z,12.30
2018-05-15T08:05:37.106Z,13.73
2018-05-15T08:08:04.694Z,11.60
2018-05-15T08:10:32.984Z,12.20
2018-05-15T08:13:01.191Z,13.83
2018-05-15T08:15:28.814Z,11.87
2018-05-15T08:17:56.443Z,10.30
2018-05-15T08:20:24.025Z,11.03
2018-05-15T08:22:52.355Z,9.73
2018-05-15T08:25:20.702Z,13.33
2018-05-15T08:27:48.312Z,9.97
2018-05-15T08:30:16.801Z,9.60
2018-05-15T08:32:44.471Z,15.30
2018-05-15T08:35:12.200Z,12.03
2018-05-15T08:37:39.883Z,8.97
2018-05-15T08:40:08.130Z,12.03
2018-05-15T08:42:35.746Z,12.60
2018-05-15T08:45:03.350Z,8.40
2018-05-15T08:47:30.984Z,9.70
2018-05-15T08:49:58.592Z,12.50
2018-05-15T08:52:26.183Z,9.40
2018-05-15T08:54:53.758Z,11.03
2018-05-15T08:57:22.369Z,12.37
2018-05-15T08:59:49.969Z,9.60
2018-05-15T09:02:17.549Z,10.40
2018-05-15T09:04:45.175Z,9.20
2018-05-15T09:07:12.791Z,7.70
2018-05-15T09:09:40.373Z,9.80
2018-05-15T09:12:08.709Z,10.00
2018-05-15T09:14:36.315Z,12.53
2018-05-15T09:17:04.671Z,11.40
2018-05-15T09:19:33.036Z,9.30
2018-05-15T09:22:00.635Z,9.43
2018-05-15T09:24:28.232Z,9.83
2018-05-15T09:26:55.838Z,10.00
2018-05-15T09:29:23.537Z,9.50
2018-05-15T09:31:51.131Z,8.10
2018-05-15T09:34:18.742Z,10.33
2018-05-15T09:36:46.359Z,9.07
2018-05-15T09:39:13.992Z,8.00
2018-05-15T09:41:41.612Z,6.87
2018-05-15T09:44:09.205Z,9.90
2018-05-15T09:46:36.809Z,9.80
2018-05-15T09:49:05.206Z,10.20
2018-05-15T09:51:32.871Z,8.13
2018-05-15T09:54:00.453Z,8.13
2018-05-15T09:56:28.034Z,12.10
2018-05-15T09:58:56.825Z,10.53
2018-05-15T10:01:24.401Z,8.90
2018-05-15T10:03:52.655Z,8.30
2018-05-15T10:06:21.011Z,11.40
2018-05-15T10:08:49.421Z,9.87
2018-05-15T10:11:17.042Z,12.00
2018-05-15T10:13:45.386Z,8.90
2018-05-15T10:16:12.986Z,9.90
2018-05-15T10:18:40.578Z,8.17
2018-05-15T10:21:08.188Z,12.50
2018-05-15T10:23:35.791Z,10.87
2018-05-15T10:26:04.147Z,11.23
2018-05-15T10:28:31.804Z,11.87
2018-05-15T10:30:59.415Z,10.77
2018-05-15T10:33:27.749Z,7.47
2018-05-15T10:35:55.352Z,11.40
2018-05-15T10:38:22.989Z,9.27
2018-05-15T10:40:50.829Z,10.43
2018-05-15T10:43:18.417Z,10.17
2018-05-15T10:45:46.009Z,12.83
2018-05-15T10:48:14.372Z,8.17
2018-05-15T10:50:42.101Z,9.17
2018-05-15T10:53:09.636Z,8.37
2018-05-15T10:55:37.980Z,10.57
2018-05-15T10:58:05.548Z,8.07
2018-05-15T11:00:33.194Z,7.30
2018-05-15T11:03:00.760Z,9.67
2018-05-15T11:05:28.368Z,8.63
2018-05-15T11:07:56.731Z,9.53
2018-05-15T11:10:24.311Z,8.17
2018-05-15T11:12:52.763Z,8.23
2018-05-15T11:15:21.069Z,8.27
2018-05-15T11:17:48.665Z,6.37
2018-05-15T11:20:28.027Z,7.30
2018-05-15T11:23:07.447Z,6.97
2018-05-15T11:25:35.048Z,8.83
2018-05-15T11:28:02.890Z,7.63
2018-05-15T11:30:30.617Z,10.47
2018-05-15T11:32:58.979Z,7.43
2018-05-15T11:35:26.587Z,7.53
2018-05-15T11:37:54.189Z,7.03
2018-05-15T11:40:21.787Z,6.93
2018-05-15T11:42:50.038Z,9.80
2018-05-15T11:45:17.626Z,9.60
2018-05-15T11:47:45.633Z,6.87
2018-05-15T11:50:14.182Z,8.97
2018-05-15T11:52:42.002Z,9.50
2018-05-15T11:55:09.802Z,8.03
2018-05-15T11:57:37.407Z,7.10
2018-05-15T12:00:05.872Z,10.57
2018-05-15T12:02:33.519Z,10.10
2018-05-15T12:05:01.135Z,8.30
2018-05-15T12:07:29.483Z,8.87
2018-05-15T12:09:57.085Z,7.03
2018-05-15T12:12:24.671Z,7.87
2018-05-15T12:14:52.251Z,6.83
2018-05-15T12:17:19.826Z,7.27
2018-05-15T12:19:47.639Z,6.20
2018-05-15T12:22:15.986Z,9.20
2018-05-15T12:24:43.583Z,8.50
2018-05-15T12:27:11.208Z,7.13
2018-05-15T12:29:38.845Z,10.13
2018-05-15T12:32:07.305Z,6.93
2018-05-15T12:34:35.745Z,7.40
2018-05-15T12:37:03.362Z,8.67
2018-05-15T12:39:30.948Z,6.90
2018-05-15T12:41:58.601Z,7.07
2018-05-15T12:44:26.185Z,8.30
2018-05-15T12:46:53.776Z,6.47
2018-05-15T12:49:21.388Z,7.27
2018-05-15T12:51:48.985Z,8.80
2018-05-15T12:54:16.560Z,7.57
2018-05-15T12:56:44.153Z,6.77
2018-05-15T12:59:12.571Z,7.17
2018-05-15T13:01:40.211Z,6.20
2018-05-15T13:04:08.571Z,6.23
2018-05-15T13:06:36.146Z,6.60
2018-05-15T13:09:03.762Z,5.77
2018-05-15T13:11:31.376Z,8.63
2018-05-15T13:13:58.976Z,10.47
2018-05-15T13:16:26.577Z,6.37
2018-05-15T13:18:54.186Z,7.70
2018-05-15T13:21:22.548Z,8.97
2018-05-15T13:23:50.139Z,6.47
2018-05-15T13:26:17.848Z,5.83
2018-05-15T13:28:45.436Z,7.77
2018-05-15T13:31:13.038Z,7.27
2018-05-15T13:33:40.636Z,8.27
2018-05-15T13:36:08.259Z,7.20
2018-05-15T13:38:36.624Z,6.83
2018-05-15T13:41:04.292Z,8.33
2018-05-15T13:43:31.836Z,9.20
2018-05-15T13:45:59.480Z,7.87
2018-05-15T13:48:27.072Z,6.83
2018-05-15T13:50:54.657Z,7.93
2018-05-15T13:53:23.012Z,7.30
2018-05-15T13:55:50.618Z,8.13
2018-05-15T13:58:18.222Z,6.90
2018-05-15T14:00:46.581Z,7.13
2018-05-15T14:03:14.206Z,6.93
2018-05-15T14:05:41.761Z,6.33
2018-05-15T14:08:09.342Z,9.20
2018-05-15T14:10:36.952Z,9.13
2018-05-15T14:13:05.002Z,5.33
2018-05-15T14:15:33.332Z,7.13
2018-05-15T14:18:00.930Z,7.70
2018-05-15T14:20:28.517Z,7.10
2018-05-15T14:22:56.857Z,8.80
2018-05-15T14:25:24.527Z,6.23
2018-05-15T14:27:52.107Z,6.83
2018-05-15T14:30:19.701Z,8.27
2018-05-15T14:32:47.329Z,7.60
2018-05-15T14:35:14.927Z,9.67
2018-05-15T14:37:43.284Z,6.67
2018-05-15T14:40:11.632Z,8.57
2018-05-15T14:42:50.993Z,7.50
2018-05-15T14:45:18.625Z,8.07
2018-05-15T14:47:46.900Z,6.50
2018-05-15T14:50:14.521Z,7.57
2018-05-15T14:52:42.136Z,7.93
2018-05-15T14:55:09.742Z,9.77
2018-05-15T14:57:38.124Z,9.17
2018-05-15T15:00:05.800Z,7.80
2018-05-15T15:02:34.172Z,7.60
2018-05-15T15:05:01.753Z,8.67
2018-05-15T15:07:30.132Z,7.73
2018-05-15T15:09:58.507Z,9.23
2018-05-15T15:12:26.545Z,9.57
2018-05-15T15:14:54.164Z,10.53
2018-05-15T15:17:22.538Z,8.13
2018-05-15T15:19:50.899Z,7.80
2018-05-15T15:22:19.243Z,7.00
2018-05-15T15:24:46.830Z,8.90
2018-05-15T15:27:14.406Z,7.87
2018-05-15T15:29:41.971Z,7.43
2018-05-15T15:32:10.246Z,7.57
2018-05-15T15:34:37.822Z,8.20
2018-05-15T15:37:05.448Z,7.97
2018-05-15T15:39:33.859Z,9.70
2018-05-15T15:42:01.444Z,6.80
2018-05-15T15:44:29.060Z,6.43
2018-05-15T15:46:56.676Z,9.40
2018-05-15T15:49:24.294Z,7.23
2018-05-15T15:51:51.898Z,8.47
2018-05-15T15:54:19.488Z,5.70
2018-05-15T15:56:47.839Z,10.77
2018-05-15T15:59:15.513Z,7.40
2018-05-15T16:01:44.190Z,9.70
2018-05-15T16:04:12.641Z,7.40
2018-05-15T16:06:40.957Z,7.60
2018-05-15T16:09:08.559Z,8.60
2018-05-15T16:11:36.225Z,10.90
2018-05-15T16:14:03.827Z,8.03
2018-05-15T16:16:31.415Z,8.70
2018-05-15T16:18:59.061Z,7.50
2018-05-15T16:21:26.660Z,7.43
2018-05-15T16:23:54.273Z,8.70
2018-05-15T16:26:21.855Z,7.00
2018-05-15T16:28:49.508Z,6.70
2018-05-15T16:31:17.103Z,8.93
2018-05-15T16:33:44.664Z,5.43
2018-05-15T16:36:12.220Z,7.93
2018-05-15T16:38:39.790Z,9.20
2018-05-15T16:41:07.382Z,7.37
2018-05-15T16:43:35.049Z,7.07
2018-05-15T16:46:02.620Z,8.90
2018-05-15T16:48:30.201Z,6.37
2018-05-15T16:50:58.537Z,10.20
2018-05-15T16:53:26.198Z,9.60
2018-05-15T16:55:53.733Z,10.37
2018-05-15T16:58:21.319Z,7.63
2018-05-15T17:00:48.943Z,7.13
2018-05-15T17:03:16.535Z,8.43
2018-05-15T17:05:44.132Z,11.67
2018-05-15T17:08:11.842Z,7.97
2018-05-15T17:10:39.318Z,6.03
2018-05-15T17:13:06.891Z,9.20
2018-05-15T17:15:34.452Z,8.00
2018-05-15T17:18:02.122Z,6.47
2018-05-15T17:20:29.724Z,8.33
2018-05-15T17:22:57.314Z,6.70
2018-05-15T17:25:24.932Z,9.47
2018-05-15T17:27:52.518Z,8.83
2018-05-15T17:30:20.080Z,7.57
2018-05-15T17:32:47.663Z,8.50
2018-05-15T17:35:15.246Z,9.00
2018-05-15T17:37:42.836Z,7.53
2018-05-15T17:40:10.413Z,7.50
2018-05-15T17:42:38.011Z,7.90
2018-05-15T17:45:05.590Z,8.83
2018-05-15T17:47:34.071Z,6.43
2018-05-15T17:50:01.687Z,9.87
2018-05-15T17:52:29.289Z,8.60
2018-05-15T17:54:56.869Z,8.90
2018-05-15T17:57:24.456Z,6.37
2018-05-15T17:59:52.117Z,8.70
2018-05-15T18:02:19.676Z,8.47
2018-05-15T18:04:47.316Z,8.70
2018-05-15T18:07:14.897Z,8.20
2018-05-15T18:09:42.464Z,8.07
2018-05-15T18:12:10.132Z,8.97
2018-05-15T18:14:37.730Z,8.67
2018-05-15T18:17:05.318Z,7.67
2018-05-15T18:19:32.980Z,6.50
2018-05-15T18:22:00.589Z,8.43
2018-05-15T18:24:28.168Z,7.60
2018-05-15T18:26:55.732Z,8.57
2018-05-15T18:29:24.084Z,7.00
2018-05-15T18:31:51.679Z,7.00
2018-05-15T18:34:20.831Z,7.43
2018-05-15T18:36:48.396Z,7.40
2018-05-15T18:39:16.021Z,10.10
2018-05-15T18:41:44.345Z,7.70
2018-05-15T18:44:11.922Z,6.93
2018-05-15T18:46:39.520Z,9.70
2018-05-15T18:49:07.098Z,8.67
2018-05-15T18:51:35.436Z,7.43
2018-05-15T18:54:03.097Z,10.47
2018-05-15T18:56:30.728Z,10.60
2018-05-15T18:58:58.307Z,12.93
2018-05-15T19:01:25.899Z,11.60
2018-05-15T19:03:53.478Z,8.30
2018-05-15T19:06:21.131Z,9.17
2018-05-15T19:08:48.716Z,10.20
2018-05-15T19:11:19.257Z,11.67
2018-05-15T19:13:47.641Z,7.47
2018-05-15T19:16:16.019Z,8.67
2018-05-15T19:18:44.396Z,10.13
2018-05-15T19:21:11.993Z,9.80
2018-05-15T19:23:39.667Z,9.83
2018-05-15T19:26:07.704Z,9.57
2018-05-15T19:28:35.316Z,8.07
2018-05-15T19:31:02.895Z,8.23
2018-05-15T19:33:36.253Z,7.43
2018-05-15T19:36:09.403Z,10.10
2018-05-15T19:38:36.995Z,10.97
2018-05-15T19:41:06.538Z,8.93
2018-05-15T19:43:34.171Z,13.03
2018-05-15T19:46:02.524Z,13.70
2018-05-15T19:48:30.131Z,12.67
2018-05-15T19:50:57.749Z,15.60
2018-05-15T19:53:25.330Z,15.23
2018-05-15T19:55:52.940Z,14.00
2018-05-15T19:58:20.545Z,15.37
2018-05-15T20:00:48.136Z,9.90
2018-05-15T20:03:16.529Z,11.43
2018-05-15T20:05:44.904Z,10.77
2018-05-15T20:08:13.288Z,11.23
2018-05-15T20:10:40.855Z,9.83
2018-05-15T20:13:09.225Z,9.90
2018-05-15T20:15:36.819Z,9.03
2018-05-15T20:18:05.185Z,11.23
2018-05-15T20:20:32.777Z,11.13
2018-05-15T20:23:01.075Z,8.80
2018-05-15T20:25:28.637Z,10.07
2018-05-15T20:27:56.241Z,11.47
2018-05-15T20:30:23.849Z,12.27
2018-05-15T20:32:51.455Z,8.80
2018-05-15T20:35:19.015Z,9.00
2018-05-15T20:37:46.566Z,13.37
2018-05-15T20:40:14.145Z,9.50
2018-05-15T20:42:41.707Z,9.63
2018-05-15T20:45:09.338Z,8.20
2018-05-15T20:47:36.924Z,8.80
2018-05-15T20:50:04.549Z,8.13
2018-05-15T20:52:32.187Z,8.77
2018-05-15T20:54:59.758Z,10.90
2018-05-15T20:57:27.363Z,10.17
2018-05-15T20:59:54.965Z,11.03
2018-05-15T21:02:22.586Z,8.43
2018-05-15T21:04:50.186Z,9.10
2018-05-15T21:07:17.770Z,8.83
2018-05-15T21:09:45.375Z,10.37
2018-05-15T21:12:14.317Z,10.90
2018-05-15T21:14:42.885Z,9.47
2018-05-15T21:17:10.467Z,10.90
2018-05-15T21:19:38.071Z,9.57
2018-05-15T21:22:06.440Z,8.10
2018-05-15T21:24:34.058Z,9.97
2018-05-15T21:27:01.654Z,9.63
2018-05-15T21:29:29.284Z,9.23
2018-05-15T21:31:56.882Z,8.07
2018-05-15T21:34:24.488Z,7.93
2018-05-15T21:36:52.174Z,11.17
2018-05-15T21:39:19.724Z,9.13
2018-05-15T21:41:48.069Z,9.07
2018-05-15T21:44:15.668Z,11.17
2018-05-15T21:46:44.009Z,7.47
2018-05-15T21:49:11.605Z,9.60
2018-05-15T21:51:39.183Z,8.20
2018-05-15T21:54:06.752Z,6.60
2018-05-15T21:56:35.105Z,7.33
2018-05-15T21:59:02.706Z,9.33
2018-05-15T22:01:31.128Z,8.17
2018-05-15T22:03:58.702Z,8.77
2018-05-15T22:06:26.292Z,11.07
2018-05-15T22:08:53.864Z,8.00
2018-05-15T22:11:21.749Z,9.13
2018-05-15T22:14:01.132Z,10.23
2018-05-15T22:16:40.546Z,7.37
2018-05-15T22:19:20.029Z,8.27
2018-05-15T22:21:59.389Z,7.30
2018-05-15T22:24:30.478Z,6.57
2018-05-15T22:26:58.091Z,11.33
2018-05-15T22:29:26.989Z,11.67
2018-05-15T22:31:54.585Z,9.90
2018-05-15T22:34:22.203Z,10.30
2018-05-15T22:36:49.785Z,7.87
2018-05-15T22:39:18.149Z,8.43
2018-05-15T22:41:45.746Z,7.50
2018-05-15T22:44:13.365Z,8.20
2018-05-15T22:46:40.954Z,8.27
2018-05-15T22:49:09.352Z,8.70
2018-05-15T22:51:37.682Z,9.77
2018-05-15T22:54:06.024Z,7.00
2018-05-15T22:56:33.635Z,5.87
2018-05-15T22:59:01.195Z,7.30
2018-05-15T23:01:28.803Z,6.93
2018-05-15T23:03:57.164Z,7.53
2018-05-15T23:06:24.847Z,8.73
2018-05-15T23:08:52.400Z,8.57
2018-05-15T23:11:19.992Z,9.37
2018-05-15T23:13:48.321Z,10.73
2018-05-15T23:16:15.896Z,8.53
2018-05-15T23:18:43.497Z,10.70
2018-05-15T23:21:11.853Z,9.97
2018-05-15T23:23:39.443Z,9.70
2018-05-15T23:26:07.799Z,8.37
2018-05-15T23:28:35.412Z,8.23
2018-05-15T23:31:02.996Z,9.60
2018-05-15T23:33:30.584Z,7.20
2018-05-15T23:35:58.162Z,9.00
2018-05-15T23:38:25.766Z,9.37
2018-05-15T23:40:53.366Z,8.37
2018-05-15T23:43:20.974Z,10.23
2018-05-15T23:45:48.563Z,11.07
2018-05-15T23:48:16.907Z,9.93
2018-05-15T23:50:44.524Z,9.27
2018-05-15T23:53:12.114Z,10.93
2018-05-15T23:55:40.508Z,11.13
2018-05-15T23:58:08.094Z,9.77
